RJER(METAR)
02/18 15:00
RJER 180600Z 25016KT 9999 FEW040 BKN045 M01/M09 Q1016 RMK A3002=
戻る
トップページへ戻る
IMOC Co,.Ltd.